Time;durP1;ratioP1;P1;durP2;ratioP2;P2;SDS_P1;SDS_P2;PMS_P1;PMS_P2;Temp;Humidity;BMP_temperature;BMP_pressure;BME280_temperature;BME280_humidity;BME280_pressure;Samples;Min_cycle;Max_cycle;Signal;HPM_P1;HPM_P2
2024/02/13 00:00:57;;;;;;;2.75;1.63;;;;;;;;;;5018064;28;20638;-68
2024/02/13 00:03:22;;;;;;;2.83;1.90;;;;;;;;;;5018552;28;20033;-65
2024/02/13 00:05:48;;;;;;;3.65;1.88;;;;;;;;;;5019084;28;20038;-68
2024/02/13 00:08:13;;;;;;;3.45;1.83;;;;;;;;;;5018220;28;20025;-67
2024/02/13 00:10:40;;;;;;;2.78;1.75;;;;;;;;;;5025821;28;20120;-68
2024/02/13 00:13:05;;;;;;;3.22;1.48;;;;;;;;;;5026351;28;20041;-67
2024/02/13 00:15:30;;;;;;;3.38;1.73;;;;;;;;;;5028308;28;20048;-65
2024/02/13 00:17:56;;;;;;;3.55;1.98;;;;;;;;;;5027265;28;20045;-68
2024/02/13 00:20:22;;;;;;;3.28;1.70;;;;;;;;;;5025984;28;20887;-67
2024/02/13 00:22:47;;;;;;;2.90;1.63;;;;;;;;;;5025297;28;20040;-66
2024/02/13 00:25:13;;;;;;;3.92;1.60;;;;;;;;;;5025927;28;20033;-65
2024/02/13 00:27:38;;;;;;;2.70;1.73;;;;;;;;;;5025550;28;20037;-68
2024/02/13 00:30:04;;;;;;;2.90;1.77;;;;;;;;;;5025934;28;20063;-67
2024/02/13 00:32:30;;;;;;;3.90;2.20;;;;;;;;;;5025673;28;20037;-68
2024/02/13 00:34:55;;;;;;;2.60;1.80;;;;;;;;;;5008366;28;20041;-68
2024/02/13 00:37:23;;;;;;;3.00;1.80;;;;;;;;;;5025768;28;20546;-66
2024/02/13 00:39:48;;;;;;;2.50;1.55;;;;;;;;;;5025088;28;20037;-66
2024/02/13 00:42:13;;;;;;;3.08;1.60;;;;;;;;;;5025057;28;20029;-68
2024/02/13 00:44:39;;;;;;;2.28;1.48;;;;;;;;;;5025656;28;20073;-69
2024/02/13 00:47:05;;;;;;;2.83;1.60;;;;;;;;;;5034699;28;20041;-68
2024/02/13 00:49:31;;;;;;;3.13;1.88;;;;;;;;;;5008077;28;20042;-69
2024/02/13 00:51:56;;;;;;;2.72;1.58;;;;;;;;;;5029672;28;20044;-68
2024/02/13 00:54:22;;;;;;;2.88;1.70;;;;;;;;;;5029916;28;20820;-66
2024/02/13 00:56:47;;;;;;;3.22;1.60;;;;;;;;;;5011562;28;20049;-68
2024/02/13 00:59:12;;;;;;;2.78;1.70;;;;;;;;;;5028920;28;20040;-69
2024/02/13 01:01:38;;;;;;;3.50;1.58;;;;;;;;;;5029069;28;20561;-67
2024/02/13 01:04:06;;;;;;;2.83;1.70;;;;;;;;;;5029627;28;20037;-67
2024/02/13 01:06:35;;;;;;;3.03;1.73;;;;;;;;;;5037528;28;20045;-69
2024/02/13 01:09:03;;;;;;;3.38;1.75;;;;;;;;;;5028558;28;20088;-69
2024/02/13 01:11:28;;;;;;;2.13;1.40;;;;;;;;;;5028396;28;20038;-69
2024/02/13 01:13:54;;;;;;;2.33;1.40;;;;;;;;;;5029616;28;20047;-68
2024/02/13 01:16:20;;;;;;;2.90;1.92;;;;;;;;;;5028611;28;20037;-68
2024/02/13 01:18:46;;;;;;;3.85;1.83;;;;;;;;;;5027656;28;20043;-69
2024/02/13 01:21:14;;;;;;;3.40;1.88;;;;;;;;;;5011640;28;20093;-69
2024/02/13 01:23:39;;;;;;;3.60;1.80;;;;;;;;;;5028790;28;20500;-66
2024/02/13 01:26:05;;;;;;;3.25;1.70;;;;;;;;;;5031842;28;20030;-68
2024/02/13 01:28:32;;;;;;;4.78;1.92;;;;;;;;;;5028962;28;20038;-68
2024/02/13 01:30:58;;;;;;;3.10;1.77;;;;;;;;;;5028177;28;20045;-69
2024/02/13 01:33:24;;;;;;;3.28;1.60;;;;;;;;;;5027787;28;20060;-68
2024/02/13 01:35:50;;;;;;;2.08;1.40;;;;;;;;;;5029751;28;20045;-67
2024/02/13 01:38:16;;;;;;;3.38;1.77;;;;;;;;;;5029110;28;20460;-70
2024/02/13 01:40:41;;;;;;;3.03;1.92;;;;;;;;;;5009842;28;20132;-69
2024/02/13 01:43:06;;;;;;;2.70;1.67;;;;;;;;;;5027870;28;20057;-69
2024/02/13 01:45:32;;;;;;;2.63;1.70;;;;;;;;;;5028524;28;20041;-69
2024/02/13 01:47:58;;;;;;;2.40;1.40;;;;;;;;;;5028738;28;20966;-69
2024/02/13 01:50:24;;;;;;;2.63;1.50;;;;;;;;;;5024183;28;20045;-67
2024/02/13 01:52:49;;;;;;;2.33;1.50;;;;;;;;;;5013161;28;20110;-64
2024/02/13 01:55:16;;;;;;;2.88;1.65;;;;;;;;;;5028065;28;20048;-67
2024/02/13 01:57:41;;;;;;;3.17;1.70;;;;;;;;;;5026355;28;20052;-67
2024/02/13 02:00:13;;;;;;;2.47;1.77;;;;;;;;;;5028007;28;20049;-68
2024/02/13 02:02:48;;;;;;;2.22;1.25;;;;;;;;;;5027958;28;20052;-68
2024/02/13 02:05:13;;;;;;;2.85;1.70;;;;;;;;;;5022426;28;20513;-69
2024/02/13 02:07:40;;;;;;;2.65;1.60;;;;;;;;;;5027547;28;20045;-67
2024/02/13 02:10:06;;;;;;;2.70;1.50;;;;;;;;;;5027502;28;20037;-69
2024/02/13 02:12:31;;;;;;;2.28;1.50;;;;;;;;;;5027228;28;20129;-67
2024/02/13 02:14:57;;;;;;;2.10;1.25;;;;;;;;;;5027896;28;20079;-64
2024/02/13 02:17:22;;;;;;;2.78;1.50;;;;;;;;;;5020499;28;20119;-68
2024/02/13 02:19:47;;;;;;;2.55;1.13;;;;;;;;;;5019585;28;20045;-68
2024/02/13 02:22:13;;;;;;;2.60;1.50;;;;;;;;;;5026068;28;20168;-67
2024/02/13 02:24:38;;;;;;;2.83;1.50;;;;;;;;;;5027184;28;20546;-69
2024/02/13 02:27:03;;;;;;;2.95;1.58;;;;;;;;;;5026168;28;20733;-68
2024/02/13 02:29:29;;;;;;;2.45;1.45;;;;;;;;;;5026925;28;20097;-68
2024/02/13 02:31:55;;;;;;;2.10;1.42;;;;;;;;;;5028582;28;20546;-69
2024/02/13 02:34:20;;;;;;;2.15;1.55;;;;;;;;;;5027116;28;20124;-69
2024/02/13 02:36:48;;;;;;;2.10;1.42;;;;;;;;;;5027114;28;20041;-69
2024/02/13 02:39:14;;;;;;;1.95;1.50;;;;;;;;;;5027471;28;20050;-68
2024/02/13 02:41:39;;;;;;;2.03;1.33;;;;;;;;;;5023596;28;20041;-69
2024/02/13 02:44:06;;;;;;;4.20;1.60;;;;;;;;;;5026784;28;20041;-66
2024/02/13 02:46:31;;;;;;;1.55;1.13;;;;;;;;;;5027232;28;20033;-68
2024/02/13 02:48:58;;;;;;;2.10;1.40;;;;;;;;;;5027152;28;20037;-66
2024/02/13 02:51:23;;;;;;;2.42;1.50;;;;;;;;;;5024324;28;20056;-68
2024/02/13 02:53:48;;;;;;;2.67;1.50;;;;;;;;;;5019744;28;20034;-68
2024/02/13 02:56:15;;;;;;;2.03;1.30;;;;;;;;;;5019170;28;20125;-68
2024/02/13 02:58:42;;;;;;;2.80;1.35;;;;;;;;;;5021332;28;20067;-68
2024/02/13 03:01:08;;;;;;;2.13;1.30;;;;;;;;;;5026373;28;20029;-68
2024/02/13 03:03:34;;;;;;;1.63;1.27;;;;;;;;;;5026560;28;20183;-67
2024/02/13 03:05:59;;;;;;;2.45;1.38;;;;;;;;;;5027055;28;20205;-68
2024/02/13 03:08:25;;;;;;;2.47;1.48;;;;;;;;;;5027118;28;20048;-68
2024/02/13 03:10:50;;;;;;;2.85;1.55;;;;;;;;;;5026118;28;20033;-68
2024/02/13 03:13:16;;;;;;;3.65;1.50;;;;;;;;;;5025854;28;20022;-68
2024/02/13 03:15:41;;;;;;;2.28;1.38;;;;;;;;;;5025158;28;20029;-65
2024/02/13 03:18:07;;;;;;;2.47;1.50;;;;;;;;;;5026526;28;20033;-68
2024/02/13 03:20:33;;;;;;;2.00;1.33;;;;;;;;;;5026633;28;20030;-67
2024/02/13 03:22:58;;;;;;;2.28;1.38;;;;;;;;;;5026400;28;20057;-67
2024/02/13 03:25:24;;;;;;;2.22;1.33;;;;;;;;;;5032207;28;20099;-68
2024/02/13 03:27:49;;;;;;;2.45;1.33;;;;;;;;;;5027095;28;20029;-68
2024/02/13 03:30:14;;;;;;;2.50;1.48;;;;;;;;;;5026784;28;20017;-68
2024/02/13 03:32:40;;;;;;;2.17;1.40;;;;;;;;;;5025998;28;20036;-68
2024/02/13 03:35:06;;;;;;;1.90;1.30;;;;;;;;;;5025310;28;20097;-68
2024/02/13 03:37:31;;;;;;;2.38;1.48;;;;;;;;;;5026150;28;20112;-68
2024/02/13 03:39:57;;;;;;;1.73;1.25;;;;;;;;;;5026967;28;20081;-68
2024/02/13 03:42:22;;;;;;;1.77;1.20;;;;;;;;;;5025744;28;20111;-68
2024/02/13 03:44:47;;;;;;;4.25;1.30;;;;;;;;;;5025588;28;20033;-68
2024/02/13 03:47:13;;;;;;;1.90;1.38;;;;;;;;;;5034264;28;20372;-69
2024/02/13 03:49:38;;;;;;;2.50;1.33;;;;;;;;;;5025905;28;20033;-68
2024/02/13 03:52:04;;;;;;;2.10;1.40;;;;;;;;;;5026013;28;20154;-67
2024/02/13 03:54:29;;;;;;;1.92;1.38;;;;;;;;;;5025609;28;20021;-67
2024/02/13 03:56:55;;;;;;;1.60;1.00;;;;;;;;;;5025912;28;20041;-67
2024/02/13 03:59:20;;;;;;;2.10;1.40;;;;;;;;;;5026139;28;20257;-68
2024/02/13 04:01:46;;;;;;;1.80;1.10;;;;;;;;;;5025951;28;20437;-67
2024/02/13 04:04:11;;;;;;;2.28;1.30;;;;;;;;;;5025333;28;20026;-67
2024/02/13 04:06:36;;;;;;;1.73;1.17;;;;;;;;;;5023818;28;20041;-69
2024/02/13 04:09:07;;;;;;;1.77;1.20;;;;;;;;;;5025658;28;20751;-67
2024/02/13 04:11:33;;;;;;;1.77;1.20;;;;;;;;;;5026534;28;20025;-68
2024/02/13 04:13:58;;;;;;;2.05;1.13;;;;;;;;;;5024828;28;20084;-66
2024/02/13 04:16:24;;;;;;;1.80;1.20;;;;;;;;;;5025538;28;20112;-68
2024/02/13 04:18:49;;;;;;;1.90;1.20;;;;;;;;;;5026179;28;20065;-68
2024/02/13 04:21:16;;;;;;;2.03;1.08;;;;;;;;;;5002930;28;20038;-68
2024/02/13 04:23:41;;;;;;;2.05;1.30;;;;;;;;;;5015894;28;20033;-68
2024/02/13 04:26:06;;;;;;;1.60;1.00;;;;;;;;;;5037134;28;20103;-69
2024/02/13 04:28:32;;;;;;;1.50;1.10;;;;;;;;;;5027481;28;20128;-67
2024/02/13 04:30:57;;;;;;;2.30;1.00;;;;;;;;;;5006391;28;20045;-68
2024/02/13 04:33:23;;;;;;;1.80;1.10;;;;;;;;;;5025739;28;20052;-66
2024/02/13 04:35:49;;;;;;;2.08;1.17;;;;;;;;;;5005851;28;20060;-67
2024/02/13 04:38:14;;;;;;;1.73;1.10;;;;;;;;;;5023913;28;20045;-69
2024/02/13 04:40:39;;;;;;;1.80;0.98;;;;;;;;;;5016128;28;21466;-68
2024/02/13 04:43:06;;;;;;;2.20;1.10;;;;;;;;;;5010064;28;20112;-68
2024/02/13 04:45:32;;;;;;;1.67;1.05;;;;;;;;;;5010618;28;20064;-66
2024/02/13 04:47:58;;;;;;;1.80;1.10;;;;;;;;;;5017043;28;20030;-67
2024/02/13 04:50:23;;;;;;;1.67;1.00;;;;;;;;;;5016431;28;20767;-69
2024/02/13 04:52:49;;;;;;;1.85;1.15;;;;;;;;;;5016386;28;20513;-68
2024/02/13 04:55:15;;;;;;;1.80;1.10;;;;;;;;;;5015849;28;20045;-68
2024/02/13 04:57:40;;;;;;;1.55;1.17;;;;;;;;;;5016204;28;20077;-66
2024/02/13 05:00:16;;;;;;;1.42;0.90;;;;;;;;;;5016240;28;20124;-68
2024/02/13 05:02:46;;;;;;;2.00;1.02;;;;;;;;;;5001049;28;20110;-68
2024/02/13 05:07:55;;;;;;;1.45;0.95;;;;;;;;;;5019437;28;20043;-65
2024/02/13 05:10:21;;;;;;;1.45;1.05;;;;;;;;;;5016430;28;20033;-66
2024/02/13 05:12:46;;;;;;;1.30;0.90;;;;;;;;;;5015727;28;20127;-67
2024/02/13 05:15:13;;;;;;;1.30;0.90;;;;;;;;;;5014432;28;20080;-68
2024/02/13 05:17:38;;;;;;;1.40;0.70;;;;;;;;;;5015115;28;20045;-68
2024/02/13 05:20:08;;;;;;;1.38;1.00;;;;;;;;;;5012773;28;20511;-67
2024/02/13 05:22:34;;;;;;;1.40;0.90;;;;;;;;;;5015152;28;20116;-68
2024/02/13 05:25:00;;;;;;;1.40;0.90;;;;;;;;;;5014664;28;20650;-66
2024/02/13 05:27:26;;;;;;;1.55;0.90;;;;;;;;;;5015136;28;20120;-67
2024/02/13 05:29:51;;;;;;;1.17;1.00;;;;;;;;;;5015682;28;20132;-68
2024/02/13 05:32:18;;;;;;;1.25;0.90;;;;;;;;;;5018211;28;20029;-68
2024/02/13 05:34:43;;;;;;;1.90;0.80;;;;;;;;;;5020780;28;20507;-66
2024/02/13 05:37:09;;;;;;;1.83;0.80;;;;;;;;;;5019924;28;20036;-66
2024/02/13 05:39:34;;;;;;;1.60;1.00;;;;;;;;;;5021222;28;20056;-68
2024/02/13 05:42:00;;;;;;;1.27;0.90;;;;;;;;;;5021064;28;20099;-68
2024/02/13 05:44:25;;;;;;;1.85;1.00;;;;;;;;;;5019329;28;20037;-73
2024/02/13 05:46:50;;;;;;;1.90;0.80;;;;;;;;;;5020045;28;22097;-67
2024/02/13 05:49:16;;;;;;;1.83;1.00;;;;;;;;;;5020559;28;20030;-68
2024/02/13 05:51:43;;;;;;;3.33;0.85;;;;;;;;;;4996187;28;20044;-69
2024/02/13 05:54:09;;;;;;;1.60;0.90;;;;;;;;;;5019164;28;20040;-69
2024/02/13 05:56:35;;;;;;;1.35;0.80;;;;;;;;;;5020949;28;20095;-68
2024/02/13 05:59:03;;;;;;;1.15;0.80;;;;;;;;;;5019629;28;20458;-68
2024/02/13 06:01:29;;;;;;;2.10;0.90;;;;;;;;;;5022928;28;20528;-69
2024/02/13 06:03:56;;;;;;;2.00;0.80;;;;;;;;;;5002323;28;20033;-68
2024/02/13 06:06:22;;;;;;;1.85;0.90;;;;;;;;;;5021562;28;20034;-68
2024/02/13 06:08:48;;;;;;;1.58;0.90;;;;;;;;;;5019576;28;20041;-69
2024/02/13 06:11:14;;;;;;;1.60;0.57;;;;;;;;;;5020127;28;20396;-70
2024/02/13 06:13:44;;;;;;;1.80;0.90;;;;;;;;;;5020832;28;20072;-72
2024/02/13 06:16:10;;;;;;;;;;;;;;;;;;5021668;28;20053;-71
2024/02/13 06:18:35;;;;;;;1.63;0.70;;;;;;;;;;5020531;28;19925;-73
2024/02/13 06:21:00;;;;;;;1.30;0.70;;;;;;;;;;5020892;28;20034;-73
2024/02/13 06:23:26;;;;;;;1.10;0.70;;;;;;;;;;5020143;28;20143;-74
2024/02/13 06:25:51;;;;;;;0.98;0.60;;;;;;;;;;5019776;28;20029;-68
2024/02/13 06:28:16;;;;;;;1.80;0.68;;;;;;;;;;5021029;28;20041;-67
2024/02/13 06:30:43;;;;;;;1.20;0.68;;;;;;;;;;5019368;28;20033;-68
2024/02/13 06:33:09;;;;;;;1.77;0.90;;;;;;;;;;5019791;28;20033;-70
2024/02/13 06:35:34;;;;;;;4.07;0.80;;;;;;;;;;5019051;28;20583;-70
2024/02/13 06:37:59;;;;;;;0.93;0.68;;;;;;;;;;5019973;28;20042;-69
2024/02/13 06:40:25;;;;;;;0.80;0.50;;;;;;;;;;5019598;28;20140;-70
2024/02/13 06:42:50;;;;;;;1.33;0.77;;;;;;;;;;5018570;28;20060;-71
2024/02/13 06:45:15;;;;;;;1.83;0.63;;;;;;;;;;5018216;28;20084;-69
2024/02/13 06:47:41;;;;;;;1.10;0.60;;;;;;;;;;5020347;28;20120;-72
2024/02/13 06:50:12;;;;;;;1.30;0.70;;;;;;;;;;5020043;28;20040;-70
2024/02/13 06:52:41;;;;;;;1.65;0.82;;;;;;;;;;5018687;28;20529;-69
2024/02/13 06:55:09;;;;;;;0.80;0.50;;;;;;;;;;5018569;28;20036;-72
2024/02/13 06:57:35;;;;;;;2.58;0.80;;;;;;;;;;5018740;28;20518;-69
2024/02/13 07:00:07;;;;;;;1.45;0.75;;;;;;;;;;5019478;28;20045;-68
2024/02/13 07:02:32;;;;;;;1.75;0.93;;;;;;;;;;5019531;28;20053;-67
2024/02/13 07:04:58;;;;;;;2.40;0.85;;;;;;;;;;4996426;28;20125;-68
2024/02/13 07:07:24;;;;;;;1.35;0.85;;;;;;;;;;5017995;28;20485;-67
2024/02/13 07:09:52;;;;;;;1.88;0.82;;;;;;;;;;5020302;28;20033;-67
2024/02/13 07:12:17;;;;;;;1.05;0.73;;;;;;;;;;5000869;28;20024;-68
2024/02/13 07:14:43;;;;;;;1.67;0.70;;;;;;;;;;5017765;28;20046;-68
2024/02/13 07:17:09;;;;;;;2.80;1.00;;;;;;;;;;5019228;28;20566;-69
2024/02/13 07:19:34;;;;;;;1.83;0.90;;;;;;;;;;5019289;28;20037;-68
2024/02/13 07:22:00;;;;;;;1.40;0.80;;;;;;;;;;5019396;28;20437;-67
2024/02/13 07:24:25;;;;;;;1.10;0.68;;;;;;;;;;5017998;28;20701;-68
2024/02/13 07:26:50;;;;;;;0.95;0.68;;;;;;;;;;5019660;28;20025;-68
2024/02/13 07:29:16;;;;;;;3.58;0.80;;;;;;;;;;5017389;28;20091;-67
2024/02/13 07:31:43;;;;;;;1.95;0.60;;;;;;;;;;5019070;28;20017;-67
2024/02/13 07:34:08;;;;;;;2.20;0.93;;;;;;;;;;5013112;28;20498;-68
2024/02/13 07:36:34;;;;;;;2.35;1.00;;;;;;;;;;5018442;28;20411;-69
2024/02/13 07:39:00;;;;;;;2.30;0.65;;;;;;;;;;5019780;28;20234;-69
2024/02/13 07:41:25;;;;;;;2.70;0.70;;;;;;;;;;5019940;28;20017;-67
2024/02/13 07:43:51;;;;;;;3.58;1.00;;;;;;;;;;5014228;28;20547;-67
2024/02/13 07:46:17;;;;;;;3.60;1.02;;;;;;;;;;5018956;28;20099;-69
2024/02/13 07:48:43;;;;;;;4.30;0.90;;;;;;;;;;5028620;28;20596;-69
2024/02/13 07:51:08;;;;;;;3.88;0.90;;;;;;;;;;5016631;28;20029;-67
2024/02/13 07:53:34;;;;;;;2.97;0.90;;;;;;;;;;5015718;28;20033;-69
2024/02/13 07:56:00;;;;;;;1.80;0.75;;;;;;;;;;5017438;28;20030;-68
2024/02/13 07:58:25;;;;;;;2.75;0.90;;;;;;;;;;5018296;28;20532;-69
2024/02/13 08:00:51;;;;;;;3.53;0.82;;;;;;;;;;5017230;28;20075;-68
2024/02/13 08:03:16;;;;;;;2.30;0.90;;;;;;;;;;5018135;28;20056;-68
2024/02/13 08:05:41;;;;;;;2.80;0.90;;;;;;;;;;5022177;28;20044;-67
2024/02/13 08:08:10;;;;;;;3.15;0.73;;;;;;;;;;5019039;28;20057;-72
2024/02/13 08:10:36;;;;;;;2.78;0.93;;;;;;;;;;5019318;28;20056;-70
2024/02/13 08:13:01;;;;;;;3.08;1.10;;;;;;;;;;5014766;28;20136;-69
2024/02/13 08:15:27;;;;;;;2.03;0.70;;;;;;;;;;5017729;28;20045;-71
2024/02/13 08:17:52;;;;;;;2.08;0.80;;;;;;;;;;5018937;28;20076;-70
2024/02/13 08:20:17;;;;;;;1.95;0.88;;;;;;;;;;5018614;28;20083;-66
2024/02/13 08:22:43;;;;;;;3.55;0.80;;;;;;;;;;5018388;28;20046;-67
2024/02/13 08:25:08;;;;;;;1.55;0.70;;;;;;;;;;5018505;28;20176;-71
2024/02/13 08:27:37;;;;;;;1.98;0.80;;;;;;;;;;5018714;28;20107;-66
2024/02/13 08:30:09;;;;;;;3.42;0.88;;;;;;;;;;5017299;28;20617;-70
2024/02/13 08:32:39;;;;;;;2.08;0.77;;;;;;;;;;5031153;28;20040;-72
2024/02/13 08:35:05;;;;;;;1.98;0.90;;;;;;;;;;5002181;28;20139;-71
2024/02/13 08:37:30;;;;;;;1.20;0.70;;;;;;;;;;5018933;28;20423;-72
2024/02/13 08:39:57;;;;;;;2.40;0.80;;;;;;;;;;5020186;28;20033;-71
2024/02/13 08:42:22;;;;;;;2.60;0.80;;;;;;;;;;5017927;28;20049;-72
2024/02/13 08:44:48;;;;;;;2.42;0.70;;;;;;;;;;5023308;28;20037;-71
2024/02/13 08:47:14;;;;;;;2.45;0.80;;;;;;;;;;5025788;28;20037;-69
2024/02/13 08:49:39;;;;;;;2.30;0.70;;;;;;;;;;5025216;28;20392;-71
2024/02/13 08:52:07;;;;;;;1.95;0.80;;;;;;;;;;5025347;28;20053;-67
2024/02/13 08:54:34;;;;;;;1.98;0.80;;;;;;;;;;5046435;28;20045;-73
2024/02/13 08:56:59;;;;;;;2.03;0.80;;;;;;;;;;5025098;28;20139;-69
2024/02/13 08:59:24;;;;;;;1.70;0.80;;;;;;;;;;5025858;28;20148;-68
2024/02/13 09:01:54;;;;;;;2.80;0.80;;;;;;;;;;5025065;28;20071;-70
2024/02/13 09:04:19;;;;;;;2.40;1.10;;;;;;;;;;5023465;28;20038;-69
2024/02/13 09:06:44;;;;;;;3.65;1.00;;;;;;;;;;5031119;28;20041;-70
2024/02/13 09:09:11;;;;;;;2.38;0.90;;;;;;;;;;5010343;28;20392;-68
2024/02/13 09:11:37;;;;;;;2.20;0.90;;;;;;;;;;5027852;28;20037;-69
2024/02/13 09:14:02;;;;;;;1.95;0.80;;;;;;;;;;5026717;28;20040;-70
2024/02/13 09:16:27;;;;;;;2.08;0.90;;;;;;;;;;5011000;28;20086;-70
2024/02/13 09:18:54;;;;;;;2.33;0.90;;;;;;;;;;5026686;28;20132;-70
2024/02/13 09:21:20;;;;;;;2.15;0.90;;;;;;;;;;5028999;28;20097;-70
2024/02/13 09:23:47;;;;;;;2.33;0.95;;;;;;;;;;5027957;28;20116;-69
2024/02/13 09:26:13;;;;;;;2.03;0.77;;;;;;;;;;5026249;28;20124;-69
2024/02/13 09:28:39;;;;;;;2.47;0.90;;;;;;;;;;5027259;28;20141;-68
2024/02/13 09:31:04;;;;;;;1.95;0.93;;;;;;;;;;5026654;28;20046;-70
2024/02/13 09:33:30;;;;;;;2.53;0.82;;;;;;;;;;5027801;28;20045;-69
2024/02/13 09:35:55;;;;;;;1.55;0.80;;;;;;;;;;5026694;28;20524;-69
2024/02/13 09:38:21;;;;;;;2.72;0.57;;;;;;;;;;5025467;28;20044;-68
2024/02/13 09:40:49;;;;;;;2.58;1.08;;;;;;;;;;5028124;28;20295;-69
2024/02/13 09:43:15;;;;;;;1.98;0.80;;;;;;;;;;5011496;28;20041;-69
2024/02/13 09:45:41;;;;;;;2.53;1.05;;;;;;;;;;5027945;28;20030;-73
2024/02/13 09:48:19;;;;;;;2.05;0.77;;;;;;;;;;5022234;28;20030;-73
2024/02/13 09:50:45;;;;;;;2.45;0.80;;;;;;;;;;5028143;28;20067;-74
2024/02/13 09:53:14;;;;;;;1.92;1.00;;;;;;;;;;5006786;28;20029;-69
2024/02/13 09:55:40;;;;;;;1.45;0.80;;;;;;;;;;5031184;28;20052;-71
2024/02/13 09:58:05;;;;;;;1.75;0.70;;;;;;;;;;5027561;28;20034;-71
2024/02/13 10:00:30;;;;;;;5.57;1.00;;;;;;;;;;5027005;28;20037;-71
2024/02/13 10:02:56;;;;;;;2.95;0.95;;;;;;;;;;5022801;28;20128;-71
2024/02/13 10:05:21;;;;;;;2.20;0.80;;;;;;;;;;5030831;28;20116;-70
2024/02/13 10:07:46;;;;;;;3.28;1.00;;;;;;;;;;5034036;28;20041;-71
2024/02/13 10:10:12;;;;;;;4.25;1.10;;;;;;;;;;5028316;28;20474;-71
2024/02/13 10:12:39;;;;;;;4.97;1.05;;;;;;;;;;5027239;28;20447;-70
2024/02/13 10:15:08;;;;;;;2.63;1.00;;;;;;;;;;5028337;28;20112;-71
2024/02/13 10:17:34;;;;;;;3.10;1.10;;;;;;;;;;5028529;28;20041;-71
2024/02/13 10:20:00;;;;;;;3.78;1.20;;;;;;;;;;5023348;28;20041;-71
2024/02/13 10:22:25;;;;;;;3.05;0.70;;;;;;;;;;5021418;28;20569;-70
2024/02/13 10:24:54;;;;;;;4.40;0.82;;;;;;;;;;5021162;28;20045;-71
2024/02/13 10:27:19;;;;;;;2.45;0.80;;;;;;;;;;5022961;28;20488;-71
2024/02/13 10:29:48;;;;;;;2.75;0.70;;;;;;;;;;5003404;28;20038;-71
2024/02/13 10:32:13;;;;;;;2.25;0.80;;;;;;;;;;5021177;28;20039;-70
2024/02/13 10:34:38;;;;;;;3.28;0.90;;;;;;;;;;5028140;28;20038;-70
2024/02/13 10:37:07;;;;;;;2.40;0.70;;;;;;;;;;5027114;28;20037;-71
2024/02/13 10:39:32;;;;;;;3.88;0.70;;;;;;;;;;5027785;28;20041;-71
2024/02/13 10:41:58;;;;;;;2.85;0.80;;;;;;;;;;5027660;28;20033;-71
2024/02/13 10:44:25;;;;;;;1.55;0.73;;;;;;;;;;5028258;28;20046;-73
2024/02/13 10:46:51;;;;;;;5.78;0.85;;;;;;;;;;5009364;28;20095;-70
2024/02/13 10:49:35;;;;;;;5.00;1.08;;;;;;;;;;5009687;28;20041;-70
2024/02/13 10:52:00;;;;;;;5.00;1.00;;;;;;;;;;5007669;28;20042;-69
2024/02/13 10:54:25;;;;;;;5.30;1.30;;;;;;;;;;5021989;28;20029;-70
2024/02/13 10:56:52;;;;;;;5.45;0.80;;;;;;;;;;5027341;28;20041;-69
2024/02/13 10:59:18;;;;;;;3.28;1.00;;;;;;;;;;5021133;28;20045;-68
2024/02/13 11:01:43;;;;;;;4.57;0.85;;;;;;;;;;4996996;28;20034;-68
2024/02/13 11:04:09;;;;;;;3.67;0.70;;;;;;;;;;4995077;28;20045;-69
2024/02/13 11:06:34;;;;;;;6.20;0.88;;;;;;;;;;5011968;28;20063;-69
2024/02/13 11:09:00;;;;;;;2.85;0.80;;;;;;;;;;5012118;28;20049;-70
2024/02/13 11:11:25;;;;;;;3.33;0.95;;;;;;;;;;5018505;28;20037;-69
2024/02/13 11:13:51;;;;;;;3.95;0.95;;;;;;;;;;5019157;28;20079;-69
2024/02/13 11:16:17;;;;;;;4.55;0.90;;;;;;;;;;5020360;28;20041;-69
2024/02/13 11:18:44;;;;;;;4.60;0.90;;;;;;;;;;5018644;28;20068;-67
2024/02/13 11:21:09;;;;;;;5.80;0.63;;;;;;;;;;5019516;28;20021;-68
2024/02/13 11:23:37;;;;;;;3.03;0.77;;;;;;;;;;5019240;28;20025;-69
2024/02/13 11:26:03;;;;;;;3.70;0.60;;;;;;;;;;5017390;28;20479;-69
2024/02/13 11:28:32;;;;;;;2.53;0.70;;;;;;;;;;5015501;28;20017;-69
2024/02/13 11:30:57;;;;;;;2.35;0.80;;;;;;;;;;5018192;28;20095;-72
2024/02/13 11:33:22;;;;;;;2.63;0.65;;;;;;;;;;5018615;28;20559;-68
2024/02/13 11:35:56;;;;;;;2.80;0.82;;;;;;;;;;5020700;28;20032;-68
2024/02/13 11:38:25;;;;;;;4.45;0.70;;;;;;;;;;4998009;28;20411;-69
2024/02/13 11:40:59;;;;;;;2.88;0.70;;;;;;;;;;5018223;28;20037;-69
2024/02/13 11:43:28;;;;;;;2.95;0.80;;;;;;;;;;5033360;28;20030;-68
2024/02/13 11:45:54;;;;;;;3.70;0.70;;;;;;;;;;5020900;28;20109;-70
2024/02/13 11:48:28;;;;;;;4.00;0.70;;;;;;;;;;5019948;28;20089;-69
2024/02/13 11:50:56;;;;;;;1.80;0.90;;;;;;;;;;5019384;28;20029;-70
2024/02/13 11:53:22;;;;;;;3.53;0.90;;;;;;;;;;5020676;28;20538;-71
2024/02/13 11:55:48;;;;;;;2.40;0.60;;;;;;;;;;5021431;28;20038;-70
2024/02/13 11:58:19;;;;;;;1.63;0.50;;;;;;;;;;5000692;28;20038;-71
2024/02/13 12:00:54;;;;;;;1.77;0.60;;;;;;;;;;5018132;28;20117;-69
2024/02/13 12:03:20;;;;;;;2.03;0.65;;;;;;;;;;5018809;28;20052;-69
2024/02/13 12:05:46;;;;;;;3.15;0.70;;;;;;;;;;5017881;28;20146;-69
2024/02/13 12:08:11;;;;;;;2.70;0.70;;;;;;;;;;4991870;28;20494;-69
2024/02/13 12:10:36;;;;;;;3.28;0.90;;;;;;;;;;4996313;28;20033;-69
2024/02/13 12:13:02;;;;;;;1.45;0.60;;;;;;;;;;5018293;28;20038;-69
2024/02/13 12:15:28;;;;;;;1.77;0.70;;;;;;;;;;5033730;28;20030;-68
2024/02/13 12:17:54;;;;;;;1.98;0.60;;;;;;;;;;5033049;28;20045;-69
2024/02/13 12:20:26;;;;;;;4.45;0.80;;;;;;;;;;5017603;28;20033;-67
2024/02/13 12:22:53;;;;;;;2.15;0.80;;;;;;;;;;5017913;28;20036;-70
2024/02/13 12:25:18;;;;;;;1.17;0.57;;;;;;;;;;5016550;28;20052;-69
2024/02/13 12:27:48;;;;;;;3.08;0.70;;;;;;;;;;5018011;28;20109;-69
2024/02/13 12:30:14;;;;;;;;;;;;;;;;;;5018330;28;20584;-68
2024/02/13 12:32:39;;;;;;;1.83;0.70;;;;;;;;;;5019820;28;19917;-70
2024/02/13 12:35:10;;;;;;;2.17;0.77;;;;;;;;;;4997091;28;20037;-70
2024/02/13 12:37:40;;;;;;;1.85;0.68;;;;;;;;;;5017826;28;20072;-72
2024/02/13 12:40:15;;;;;;;2.03;0.60;;;;;;;;;;4994184;28;20064;-72
2024/02/13 12:42:41;;;;;;;2.60;1.02;;;;;;;;;;5017797;28;20065;-69
2024/02/13 12:45:09;;;;;;;1.23;0.60;;;;;;;;;;5018496;28;20485;-69
2024/02/13 12:47:35;;;;;;;1.85;0.63;;;;;;;;;;5017130;28;20064;-69
2024/02/13 12:50:01;;;;;;;1.50;0.60;;;;;;;;;;5017952;28;20419;-67
2024/02/13 12:52:27;;;;;;;1.75;0.70;;;;;;;;;;5017758;28;20030;-65
2024/02/13 12:54:54;;;;;;;2.67;0.90;;;;;;;;;;5017459;28;20542;-68
2024/02/13 12:57:19;;;;;;;2.00;0.70;;;;;;;;;;5018454;28;20025;-67
2024/02/13 12:59:45;;;;;;;2.38;0.57;;;;;;;;;;5018146;28;20044;-66
2024/02/13 13:02:10;;;;;;;2.58;0.50;;;;;;;;;;4998876;28;20022;-68
2024/02/13 13:04:35;;;;;;;3.25;0.60;;;;;;;;;;5016900;28;20559;-67
2024/02/13 13:07:01;;;;;;;2.00;0.57;;;;;;;;;;5018282;28;20033;-67
2024/02/13 13:09:26;;;;;;;4.00;0.70;;;;;;;;;;5020136;28;20417;-69
2024/02/13 13:11:51;;;;;;;0.80;0.50;;;;;;;;;;5017031;28;20029;-71
2024/02/13 13:14:18;;;;;;;2.13;0.60;;;;;;;;;;5018527;28;20407;-70
2024/02/13 13:16:44;;;;;;;1.80;0.60;;;;;;;;;;5020042;28;20042;-66
2024/02/13 13:19:10;;;;;;;1.63;0.45;;;;;;;;;;5020221;28;20041;-69
2024/02/13 13:21:36;;;;;;;1.48;0.60;;;;;;;;;;5018006;28;20075;-68
2024/02/13 13:24:03;;;;;;;1.10;0.50;;;;;;;;;;5018527;28;20045;-69
2024/02/13 13:26:32;;;;;;;1.15;0.45;;;;;;;;;;5018590;28;20081;-69
2024/02/13 13:29:04;;;;;;;2.15;0.50;;;;;;;;;;5017806;28;20044;-69
2024/02/13 13:31:33;;;;;;;1.67;0.40;;;;;;;;;;5017229;28;20087;-69
2024/02/13 13:33:58;;;;;;;1.25;0.50;;;;;;;;;;5017337;28;20034;-70
2024/02/13 13:36:25;;;;;;;1.60;0.60;;;;;;;;;;5017646;28;20034;-68
2024/02/13 13:38:51;;;;;;;1.35;0.50;;;;;;;;;;5017720;28;20084;-71
2024/02/13 13:41:16;;;;;;;1.58;0.45;;;;;;;;;;5021019;28;20057;-68
2024/02/13 13:43:46;;;;;;;0.90;0.40;;;;;;;;;;5023852;28;20409;-68
2024/02/13 13:46:11;;;;;;;2.10;0.50;;;;;;;;;;5024524;28;20042;-69
2024/02/13 13:48:37;;;;;;;2.92;0.63;;;;;;;;;;5024736;28;20026;-70
2024/02/13 13:51:02;;;;;;;1.00;0.60;;;;;;;;;;5023834;28;20828;-68
2024/02/13 13:53:28;;;;;;;1.45;0.38;;;;;;;;;;5006631;28;20025;-68
2024/02/13 13:55:55;;;;;;;1.92;0.57;;;;;;;;;;5028971;28;20100;-68
2024/02/13 13:58:22;;;;;;;1.35;0.50;;;;;;;;;;5025378;28;20068;-67
2024/02/13 14:00:49;;;;;;;1.00;0.40;;;;;;;;;;5024881;28;20105;-69
2024/02/13 14:03:15;;;;;;;1.25;0.43;;;;;;;;;;5015797;28;20022;-70
2024/02/13 14:05:40;;;;;;;0.73;0.35;;;;;;;;;;5024372;28;20045;-74
2024/02/13 14:08:06;;;;;;;0.98;0.40;;;;;;;;;;5017829;28;20035;-71
2024/02/13 14:10:34;;;;;;;1.58;0.50;;;;;;;;;;5025723;28;20068;-69
2024/02/13 14:12:59;;;;;;;1.13;0.60;;;;;;;;;;5030497;28;20112;-68
2024/02/13 14:15:28;;;;;;;1.50;0.30;;;;;;;;;;5023550;28;20104;-69
2024/02/13 14:17:54;;;;;;;1.17;0.47;;;;;;;;;;5025526;28;20070;-71
2024/02/13 14:20:20;;;;;;;1.35;0.40;;;;;;;;;;5027662;28;20056;-70
2024/02/13 14:22:46;;;;;;;1.30;0.43;;;;;;;;;;5025024;28;20041;-67
2024/02/13 14:25:12;;;;;;;1.40;0.60;;;;;;;;;;5023975;28;20112;-71
2024/02/13 14:27:37;;;;;;;1.02;0.52;;;;;;;;;;5034133;28;20569;-70
2024/02/13 14:30:05;;;;;;;1.73;0.75;;;;;;;;;;5028809;28;20140;-71
2024/02/13 14:32:30;;;;;;;3.20;0.82;;;;;;;;;;5028269;28;20041;-71
2024/02/13 14:34:55;;;;;;;1.83;0.70;;;;;;;;;;5025119;28;20049;-66
2024/02/13 14:37:23;;;;;;;1.65;0.70;;;;;;;;;;5025632;28;20049;-68
2024/02/13 14:39:48;;;;;;;0.68;0.40;;;;;;;;;;5028317;28;20045;-66